createdAt,value
2019-04-22T00:01:50.378Z,19.20
2019-04-22T00:04:32.305Z,19.18
2019-04-22T00:07:08.665Z,19.17
2019-04-22T00:09:49.917Z,19.14
2019-04-22T00:12:22.280Z,19.13
2019-04-22T00:14:43.857Z,19.10
2019-04-22T00:17:23.305Z,19.08
2019-04-22T00:19:52.328Z,19.06
2019-04-22T00:22:23.584Z,19.04
2019-04-22T00:24:51.224Z,19.04
2019-04-22T00:27:29.530Z,19.01
2019-04-22T00:30:05.356Z,19.00
2019-04-22T00:32:51.290Z,18.96
2019-04-22T00:35:19.503Z,18.94
2019-04-22T00:37:56.734Z,18.92
2019-04-22T00:40:30.272Z,18.90
2019-04-22T00:42:53.576Z,18.89
2019-04-22T00:45:26.931Z,18.88
2019-04-22T00:48:01.073Z,18.85
2019-04-22T00:53:03.951Z,18.83
2019-04-22T00:55:32.703Z,18.81
2019-04-22T00:58:06.125Z,18.79
2019-04-22T01:00:31.002Z,18.75
2019-04-22T01:03:14.436Z,18.74
2019-04-22T01:05:34.438Z,18.71
2019-04-22T01:08:06.872Z,18.70
2019-04-22T01:10:44.075Z,18.69
2019-04-22T01:13:08.040Z,18.67
2019-04-22T01:15:43.271Z,18.66
2019-04-22T01:18:08.272Z,18.63
2019-04-22T01:23:09.579Z,18.60
2019-04-22T01:25:40.326Z,18.58
2019-04-22T01:28:00.933Z,18.58
2019-04-22T01:30:27.871Z,18.55
2019-04-22T01:32:52.086Z,18.53
2019-04-22T01:35:32.099Z,18.51
2019-04-22T01:38:07.809Z,18.49
2019-04-22T01:40:47.728Z,18.50
2019-04-22T01:43:18.625Z,18.47
2019-04-22T01:45:47.670Z,18.46
2019-04-22T01:48:17.980Z,18.43
2019-04-22T01:50:48.418Z,18.40
2019-04-22T01:53:24.595Z,18.39
2019-04-22T01:55:52.286Z,18.36
2019-04-22T01:58:17.107Z,18.36
2019-04-22T02:00:58.258Z,18.35
2019-04-22T02:03:27.954Z,18.34
2019-04-22T02:05:50.770Z,18.32
2019-04-22T02:08:31.297Z,18.30
2019-04-22T02:10:57.641Z,18.28
2019-04-22T02:13:29.177Z,18.27
2019-04-22T02:16:00.235Z,18.25
2019-04-22T02:18:31.759Z,18.23
2019-04-22T02:20:59.712Z,18.23
2019-04-22T02:26:22.926Z,18.17
2019-04-22T02:28:38.038Z,18.17
2019-04-22T02:31:23.537Z,18.15
2019-04-22T02:43:55.411Z,18.08
2019-04-22T02:51:18.795Z,18.02
2019-04-22T02:54:15.321Z,18.02
2019-04-22T03:01:24.762Z,17.95
2019-04-22T03:04:04.544Z,17.94
2019-04-22T03:11:34.241Z,17.88
2019-04-22T03:16:29.761Z,17.85
2019-04-22T03:24:08.513Z,17.77
2019-04-22T03:26:34.136Z,17.78
2019-04-22T03:39:38.070Z,17.70
2019-04-22T03:47:12.163Z,17.67
2019-04-22T03:49:38.892Z,17.64
2019-04-22T03:52:10.907Z,17.63
2019-04-22T03:57:24.967Z,17.58
2019-04-22T03:59:41.444Z,17.57
2019-04-22T04:04:36.961Z,17.55
2019-04-22T04:07:20.554Z,17.53
2019-04-22T04:17:09.650Z,17.48
2019-04-22T04:19:43.379Z,17.45
2019-04-22T04:22:26.756Z,17.44
2019-04-22T04:24:57.979Z,17.41
2019-04-22T04:27:30.922Z,17.40
2019-04-22T04:32:30.805Z,17.40
2019-04-22T04:37:32.129Z,17.37
2019-04-22T04:39:57.922Z,17.36
2019-04-22T04:47:28.805Z,17.31
2019-04-22T04:52:35.444Z,17.31
2019-04-22T04:57:23.478Z,17.29
2019-04-22T05:02:30.906Z,17.27
2019-04-22T05:07:34.255Z,17.27
2019-04-22T05:09:59.618Z,17.25
2019-04-22T05:12:34.305Z,17.28
2019-04-22T05:14:55.026Z,17.27
2019-04-22T05:17:25.544Z,17.27
2019-04-22T05:19:59.081Z,17.25
2019-04-22T05:22:28.051Z,17.24
2019-04-22T05:24:58.190Z,17.24
2019-04-22T05:27:29.397Z,17.22
2019-04-22T05:30:07.526Z,17.21
2019-04-22T05:32:24.604Z,17.23
2019-04-22T05:34:56.715Z,17.27
2019-04-22T05:37:27.310Z,17.28
2019-04-22T05:39:58.713Z,17.29
2019-04-22T05:42:22.806Z,17.32
2019-04-22T05:47:38.960Z,17.37
2019-04-22T05:50:07.535Z,17.41
2019-04-22T05:52:40.525Z,17.44
2019-04-22T05:55:16.689Z,17.49
2019-04-22T05:57:44.250Z,17.51
2019-04-22T06:00:25.857Z,17.56
2019-04-22T06:02:53.501Z,17.58
2019-04-22T06:05:19.655Z,17.61
2019-04-22T06:07:50.689Z,17.64
2019-04-22T06:10:29.302Z,17.68
2019-04-22T06:12:46.585Z,17.71
2019-04-22T06:15:21.182Z,17.75
2019-04-22T06:17:57.597Z,17.78
2019-04-22T06:20:28.626Z,17.81
2019-04-22T06:25:28.285Z,17.88
2019-04-22T06:27:54.397Z,17.91
2019-04-22T06:33:00.913Z,17.97
2019-04-22T06:38:22.790Z,18.06
2019-04-22T06:43:03.430Z,18.10
2019-04-22T06:45:30.576Z,18.14
2019-04-22T06:50:40.191Z,18.20
2019-04-22T06:53:06.806Z,18.22
2019-04-22T06:55:48.227Z,18.24
2019-04-22T06:58:04.616Z,18.28
2019-04-22T07:00:40.373Z,18.31
2019-04-22T07:03:30.102Z,18.37
2019-04-22T07:05:37.742Z,18.43
2019-04-22T07:08:16.294Z,18.48
2019-04-22T07:13:10.710Z,18.60
2019-04-22T07:18:14.251Z,18.67
2019-04-22T07:20:47.270Z,18.70
2019-04-22T07:23:15.451Z,18.73
2019-04-22T07:25:40.726Z,18.77
2019-04-22T07:28:13.837Z,18.81
2019-04-22T07:30:57.955Z,18.84
2019-04-22T07:38:22.217Z,18.93
2019-04-22T07:40:51.947Z,18.97
2019-04-22T07:43:21.411Z,18.99
2019-04-22T07:46:03.503Z,19.05
2019-04-22T07:48:26.194Z,19.09
2019-04-22T07:50:56.038Z,19.12
2019-04-22T07:53:19.605Z,19.15
2019-04-22T07:55:55.461Z,19.15
2019-04-22T07:58:27.405Z,19.18
2019-04-22T08:00:55.953Z,19.22
2019-04-22T08:03:28.982Z,19.26
2019-04-22T08:06:08.318Z,19.29
2019-04-22T08:08:26.149Z,19.31
2019-04-22T08:10:57.929Z,19.34
2019-04-22T08:13:24.817Z,19.42
2019-04-22T08:15:58.269Z,19.42
2019-04-22T08:18:28.978Z,19.49
2019-04-22T08:20:59.015Z,19.50
2019-04-22T08:23:30.919Z,19.58
2019-04-22T08:25:55.700Z,19.59
2019-04-22T08:28:32.112Z,19.63
2019-04-22T08:31:04.188Z,19.62
2019-04-22T08:38:37.257Z,19.69
2019-04-22T08:41:17.792Z,19.73
2019-04-22T08:43:54.662Z,19.78
2019-04-22T08:46:16.690Z,19.82
2019-04-22T08:48:43.980Z,19.84
2019-04-22T08:51:15.469Z,19.88
2019-04-22T08:53:50.459Z,19.92
2019-04-22T08:58:55.495Z,20.00
2019-04-22T09:03:52.359Z,20.05
2019-04-22T09:06:34.193Z,20.10
2019-04-22T09:08:55.308Z,20.15
2019-04-22T09:11:33.714Z,20.22
2019-04-22T09:13:55.159Z,20.20
2019-04-22T09:16:26.495Z,20.23
2019-04-22T09:18:56.109Z,20.27
2019-04-22T09:21:44.052Z,20.31
2019-04-22T09:24:02.154Z,20.32
2019-04-22T09:26:34.761Z,20.38
2019-04-22T09:28:59.939Z,20.40
2019-04-22T09:31:24.232Z,20.44
2019-04-22T09:33:53.620Z,20.45
2019-04-22T09:39:09.480Z,20.57
2019-04-22T09:41:36.751Z,20.58
2019-04-22T09:46:34.639Z,20.66
2019-04-22T09:49:08.028Z,20.67
2019-04-22T09:51:30.738Z,20.68
2019-04-22T09:54:08.628Z,20.68
2019-04-22T09:56:37.343Z,20.67
2019-04-22T09:59:03.816Z,20.67
2019-04-22T10:04:06.970Z,20.72
2019-04-22T10:06:47.911Z,20.73
2019-04-22T10:11:47.054Z,20.79
2019-04-22T10:14:12.343Z,20.85
2019-04-22T10:16:43.652Z,20.81
2019-04-22T10:19:12.328Z,20.86
2019-04-22T10:21:46.331Z,20.84
2019-04-22T10:24:13.726Z,20.82
2019-04-22T10:31:43.565Z,20.91
2019-04-22T10:34:05.878Z,20.89
2019-04-22T10:36:21.437Z,20.88
2019-04-22T10:38:50.880Z,20.85
2019-04-22T10:41:20.707Z,20.84
2019-04-22T10:43:50.943Z,20.80
2019-04-22T10:46:19.931Z,20.81
2019-04-22T10:48:50.042Z,20.79
2019-04-22T10:51:18.994Z,20.76
2019-04-22T10:53:49.247Z,20.73
2019-04-22T10:56:19.009Z,20.73
2019-04-22T10:58:48.920Z,20.72
2019-04-22T11:01:17.996Z,20.73
2019-04-22T11:03:46.967Z,20.72
2019-04-22T11:06:17.158Z,20.72
2019-04-22T11:08:52.338Z,20.72
2019-04-22T11:11:31.436Z,20.72
2019-04-22T11:13:47.560Z,20.72
2019-04-22T11:16:17.434Z,20.72
2019-04-22T11:18:47.550Z,20.74
2019-04-22T11:21:17.911Z,20.73
2019-04-22T11:23:47.104Z,20.74
2019-04-22T11:26:15.937Z,20.75
2019-04-22T11:28:45.480Z,20.74
2019-04-22T11:31:14.853Z,20.76
2019-04-22T11:33:44.808Z,20.76
2019-04-22T11:36:15.616Z,20.76
2019-04-22T11:38:51.146Z,20.76
2019-04-22T11:41:16.733Z,20.77
2019-04-22T11:43:47.378Z,20.77
2019-04-22T11:46:17.646Z,20.79
2019-04-22T11:48:46.093Z,20.79
2019-04-22T11:51:15.942Z,20.79
2019-04-22T11:53:45.176Z,20.78
2019-04-22T11:56:14.199Z,20.81
2019-04-22T11:58:44.504Z,20.81
2019-04-22T12:01:14.793Z,20.82
2019-04-22T12:03:44.229Z,20.83
2019-04-22T12:06:13.485Z,20.82
2019-04-22T12:08:43.720Z,20.82
2019-04-22T12:11:13.717Z,20.83
2019-04-22T12:13:44.042Z,20.84
2019-04-22T12:16:13.623Z,20.86
2019-04-22T12:18:43.083Z,20.85
2019-04-22T12:21:13.176Z,20.89
2019-04-22T12:23:43.452Z,20.90
2019-04-22T12:26:16.258Z,20.90
2019-04-22T12:28:42.314Z,20.88
2019-04-22T12:31:11.355Z,20.91
2019-04-22T12:33:41.260Z,20.94
2019-04-22T12:36:11.074Z,20.95
2019-04-22T12:38:40.049Z,20.95
2019-04-22T12:41:11.964Z,20.96
2019-04-22T12:43:40.980Z,20.98
2019-04-22T12:46:10.240Z,20.99
2019-04-22T12:48:39.341Z,21.01
2019-04-22T12:51:09.224Z,21.00
2019-04-22T12:53:38.358Z,21.03
2019-04-22T12:56:07.378Z,21.04
2019-04-22T12:58:37.829Z,21.05
2019-04-22T13:01:08.658Z,21.06
2019-04-22T13:03:38.292Z,21.07
2019-04-22T13:06:07.848Z,21.09
2019-04-22T13:08:38.085Z,21.10
2019-04-22T13:11:11.713Z,21.12
2019-04-22T13:13:38.721Z,21.12
2019-04-22T13:16:08.996Z,21.12
2019-04-22T13:18:44.378Z,21.16
2019-04-22T13:21:08.767Z,21.16
2019-04-22T13:23:38.945Z,21.17
2019-04-22T13:26:07.507Z,21.19
2019-04-22T13:28:36.852Z,21.19
2019-04-22T13:31:05.936Z,21.20
2019-04-22T13:33:34.785Z,21.23
2019-04-22T13:36:03.853Z,21.25
2019-04-22T13:38:33.170Z,21.26
2019-04-22T13:41:16.422Z,21.29
2019-04-22T13:43:34.330Z,21.31
2019-04-22T13:46:03.890Z,21.34
2019-04-22T13:48:53.378Z,21.38
2019-04-22T13:51:43.161Z,21.41
2019-04-22T13:56:24.893Z,21.49
2019-04-22T13:58:49.877Z,21.52
2019-04-22T14:01:12.700Z,21.56
2019-04-22T14:04:00.837Z,21.59
2019-04-22T14:06:31.092Z,21.61
2019-04-22T14:09:01.023Z,21.65
2019-04-22T14:11:39.064Z,21.68
2019-04-22T14:14:00.974Z,21.74
2019-04-22T14:16:31.133Z,21.80
2019-04-22T14:19:00.515Z,21.87
2019-04-22T14:21:30.591Z,21.84
2019-04-22T14:23:58.794Z,21.82
2019-04-22T14:26:41.331Z,21.83
2019-04-22T14:28:59.911Z,21.88
2019-04-22T14:31:28.969Z,21.93
2019-04-22T14:34:01.724Z,21.93
2019-04-22T14:36:29.746Z,21.95
2019-04-22T14:38:59.763Z,22.02
2019-04-22T14:41:42.572Z,22.10
2019-04-22T14:45:04.997Z,22.10
2019-04-22T14:47:03.557Z,22.16
2019-04-22T14:49:24.027Z,22.22
2019-04-22T14:51:55.025Z,22.24
2019-04-22T14:54:21.179Z,22.27
2019-04-22T14:56:34.199Z,22.33
2019-04-22T14:59:04.985Z,22.35
2019-04-22T15:01:35.314Z,22.33
2019-04-22T15:04:05.450Z,22.34
2019-04-22T15:06:35.806Z,22.35
2019-04-22T15:09:08.057Z,22.45
2019-04-22T15:11:50.775Z,22.46
2019-04-22T15:14:07.740Z,22.50
2019-04-22T15:16:55.162Z,22.53
2019-04-22T15:19:43.589Z,22.59
2019-04-22T15:22:12.893Z,22.60
2019-04-22T15:24:42.632Z,22.58
2019-04-22T15:27:11.629Z,22.68
2019-04-22T15:29:41.163Z,22.70
2019-04-22T15:32:11.771Z,22.75
2019-04-22T15:34:41.597Z,22.78
2019-04-22T15:37:11.834Z,22.81
2019-04-22T15:39:41.522Z,22.90
2019-04-22T15:42:18.417Z,22.91
2019-04-22T15:44:42.215Z,22.99
2019-04-22T15:47:11.295Z,22.96
2019-04-22T15:49:40.319Z,22.97
2019-04-22T15:52:10.447Z,23.03
2019-04-22T15:54:39.437Z,23.04
2019-04-22T15:57:08.959Z,23.11
2019-04-22T15:59:54.081Z,23.10
2019-04-22T16:02:10.051Z,23.14
2019-04-22T16:04:41.006Z,23.15
2019-04-22T16:07:10.860Z,23.17
2019-04-22T16:09:41.518Z,23.20
2019-04-22T16:12:18.792Z,23.20
2019-04-22T16:14:47.351Z,23.19
2019-04-22T16:17:12.752Z,23.23
2019-04-22T16:19:43.260Z,23.25
2019-04-22T16:22:18.336Z,23.26
2019-04-22T16:24:58.187Z,23.27
2019-04-22T16:27:28.347Z,23.32
2019-04-22T16:29:57.349Z,23.38
2019-04-22T16:32:27.807Z,23.39
2019-04-22T16:34:56.860Z,23.39
2019-04-22T16:37:25.916Z,23.40
2019-04-22T16:39:54.897Z,23.41
2019-04-22T16:42:33.767Z,23.38
2019-04-22T16:44:55.686Z,23.40
2019-04-22T16:47:25.712Z,23.39
2019-04-22T16:49:55.202Z,23.42
2019-04-22T16:52:25.853Z,23.40
2019-04-22T16:54:55.093Z,23.40
2019-04-22T16:57:26.025Z,23.38
2019-04-22T16:59:54.977Z,23.41
2019-04-22T17:02:45.224Z,23.38
2019-04-22T17:05:41.399Z,23.37
2019-04-22T17:08:12.210Z,23.34
2019-04-22T17:10:41.912Z,23.29
2019-04-22T17:13:17.499Z,23.25
2019-04-22T17:15:41.684Z,23.24
2019-04-22T17:18:10.607Z,23.24
2019-04-22T17:20:40.456Z,23.22
2019-04-22T17:23:09.680Z,23.21
2019-04-22T17:25:38.655Z,23.22
2019-04-22T17:28:07.842Z,23.22
2019-04-22T17:30:36.810Z,23.29
2019-04-22T17:33:05.826Z,23.24
2019-04-22T17:35:36.013Z,23.24
2019-04-22T17:38:12.671Z,23.22
2019-04-22T17:40:52.245Z,23.22
2019-04-22T17:43:36.082Z,23.23
2019-04-22T17:46:12.035Z,23.21
2019-04-22T17:48:57.834Z,23.17
2019-04-22T17:51:31.428Z,23.08
2019-04-22T17:54:02.872Z,23.03
2019-04-22T17:56:33.970Z,22.93
2019-04-22T17:59:02.463Z,22.85
2019-04-22T18:01:35.671Z,22.75
2019-04-22T18:03:52.849Z,22.65
2019-04-22T18:06:46.945Z,22.60
2019-04-22T18:09:05.317Z,22.52
2019-04-22T18:12:01.091Z,22.45
2019-04-22T18:14:30.462Z,22.37
2019-04-22T18:16:41.280Z,22.32
2019-04-22T18:19:10.127Z,22.29
2019-04-22T18:21:36.151Z,22.22
2019-04-22T18:24:02.674Z,22.17
2019-04-22T18:26:43.511Z,22.12
2019-04-22T18:29:11.284Z,22.09
2019-04-22T18:31:38.572Z,22.06
2019-04-22T18:34:10.122Z,22.00
2019-04-22T18:36:40.525Z,21.93
2019-04-22T18:39:22.702Z,21.87
2019-04-22T18:41:43.982Z,21.85
2019-04-22T18:44:19.930Z,21.81
2019-04-22T18:46:50.950Z,21.77
2019-04-22T18:49:17.202Z,21.75
2019-04-22T18:51:51.839Z,21.72
2019-04-22T18:54:48.514Z,21.69
2019-04-22T18:57:20.778Z,21.72
2019-04-22T18:59:34.133Z,21.63
2019-04-22T19:02:05.364Z,21.59
2019-04-22T19:04:40.887Z,21.57
2019-04-22T19:07:33.197Z,21.52
2019-04-22T19:12:32.041Z,21.42
2019-04-22T19:14:57.033Z,21.40
2019-04-22T19:17:35.432Z,21.36
2019-04-22T19:20:02.847Z,21.34
2019-04-22T19:22:29.941Z,21.30
2019-04-22T19:24:54.691Z,21.29
2019-04-22T19:27:24.860Z,21.29
2019-04-22T19:30:07.479Z,21.28
2019-04-22T19:32:34.657Z,21.22
2019-04-22T19:34:57.152Z,21.20
2019-04-22T19:37:28.417Z,21.18
2019-04-22T19:40:09.493Z,21.14
2019-04-22T19:42:40.818Z,21.14
2019-04-22T19:45:02.617Z,21.09
2019-04-22T19:47:38.975Z,21.09
2019-04-22T19:50:15.036Z,21.05
2019-04-22T19:52:50.069Z,21.03
2019-04-22T19:55:11.002Z,21.06
2019-04-22T19:57:37.424Z,21.05
2019-04-22T20:00:11.060Z,21.02
2019-04-22T20:03:14.886Z,20.97
2019-04-22T20:05:43.891Z,20.94
2019-04-22T20:08:14.514Z,20.91
2019-04-22T20:10:46.125Z,20.89
2019-04-22T20:13:19.964Z,20.86
2019-04-22T20:15:41.145Z,20.85
2019-04-22T20:18:27.056Z,20.86
2019-04-22T20:20:56.116Z,20.84
2019-04-22T20:23:14.458Z,20.82
2019-04-22T20:25:44.547Z,20.81
2019-04-22T20:28:19.359Z,20.79
2019-04-22T20:30:50.580Z,20.77
2019-04-22T20:33:27.095Z,20.75
2019-04-22T20:35:55.846Z,20.72
2019-04-22T20:38:27.713Z,20.68
2019-04-22T20:40:55.681Z,20.65
2019-04-22T20:43:33.304Z,20.64
2019-04-22T20:45:57.721Z,20.60
2019-04-22T20:48:16.941Z,20.59
2019-04-22T20:50:57.835Z,20.54
2019-04-22T20:53:31.173Z,20.51
2019-04-22T20:56:00.700Z,20.50
2019-04-22T20:58:28.639Z,20.46
2019-04-22T21:00:53.050Z,20.42
2019-04-22T21:03:20.893Z,20.43
2019-04-22T21:05:53.054Z,20.39
2019-04-22T21:08:35.111Z,20.34
2019-04-22T21:10:50.986Z,20.32
2019-04-22T21:13:28.141Z,20.31
2019-04-22T21:16:09.405Z,20.32
2019-04-22T21:18:30.756Z,20.26
2019-04-22T21:21:09.631Z,20.22
2019-04-22T21:23:27.617Z,20.18
2019-04-22T21:26:11.076Z,20.16
2019-04-22T21:28:38.373Z,20.13
2019-04-22T21:31:14.860Z,20.13
2019-04-22T21:33:40.833Z,20.09
2019-04-22T21:38:42.448Z,20.06
2019-04-22T21:41:09.969Z,20.03
2019-04-22T21:43:44.956Z,20.01
2019-04-22T21:46:13.105Z,20.00
2019-04-22T21:48:59.716Z,20.00
2019-04-22T21:51:19.182Z,19.97
2019-04-22T21:53:52.529Z,19.96
2019-04-22T21:59:00.141Z,19.92
2019-04-22T22:01:35.510Z,19.89
2019-04-22T22:04:00.163Z,19.88
2019-04-22T22:06:23.510Z,19.87
2019-04-22T22:09:05.906Z,19.85
2019-04-22T22:11:27.786Z,19.84
2019-04-22T22:14:01.927Z,19.82
2019-04-22T22:16:30.820Z,19.81
2019-04-22T22:19:08.099Z,19.80
2019-04-22T22:24:10.139Z,19.77
2019-04-22T22:26:40.581Z,19.75
2019-04-22T22:29:10.413Z,19.72
2019-04-22T22:31:41.285Z,19.73
2019-04-22T22:34:09.746Z,19.70
2019-04-22T22:36:33.543Z,19.71
2019-04-22T22:39:04.000Z,19.68
2019-04-22T22:41:19.679Z,19.67
2019-04-22T22:43:51.120Z,19.67
2019-04-22T22:46:31.875Z,19.66
2019-04-22T22:49:09.838Z,19.66
2019-04-22T22:51:47.507Z,19.64
2019-04-22T22:54:16.525Z,19.63
2019-04-22T22:56:47.553Z,19.61
2019-04-22T22:59:18.561Z,19.59
2019-04-22T23:01:45.380Z,19.58
2019-04-22T23:04:20.906Z,19.57
2019-04-22T23:06:53.230Z,19.54
2019-04-22T23:09:13.386Z,19.53
2019-04-22T23:14:21.488Z,19.48
2019-04-22T23:16:37.788Z,19.47
2019-04-22T23:19:06.385Z,19.44
2019-04-22T23:21:42.753Z,19.40
2019-04-22T23:24:35.978Z,19.37
2019-04-22T23:27:04.385Z,19.36
2019-04-22T23:29:45.957Z,19.37
2019-04-22T23:32:22.720Z,19.34
2019-04-22T23:35:01.734Z,19.32
2019-04-22T23:37:28.939Z,19.33
2019-04-22T23:40:16.045Z,19.29
2019-04-22T23:42:41.104Z,19.27
2019-04-22T23:45:10.816Z,19.26
2019-04-22T23:47:49.923Z,19.23
2019-04-22T23:50:33.975Z,19.22
2019-04-22T23:53:04.837Z,19.20
2019-04-22T23:55:37.433Z,19.18
2019-04-22T23:58:02.716Z,19.17
